createdAt,value
2018-07-16T00:01:01.422Z,3.2
2018-07-16T00:06:01.423Z,3.2
2018-07-16T00:11:01.413Z,3.0
2018-07-16T00:26:01.427Z,2.8
2018-07-16T00:31:01.392Z,3.0
2018-07-16T00:36:01.390Z,3.0
2018-07-16T00:47:01.416Z,3.2
2018-07-16T00:52:01.386Z,3.5
2018-07-16T00:57:01.386Z,3.5
2018-07-16T01:02:01.385Z,3.9
2018-07-16T01:07:01.390Z,4.1
2018-07-16T01:17:01.389Z,3.8
2018-07-16T01:22:01.394Z,3.8
2018-07-16T01:27:01.380Z,3.8
2018-07-16T01:32:01.386Z,3.8
2018-07-16T01:37:01.381Z,4.0
2018-07-16T01:42:01.386Z,4.0
2018-07-16T01:47:01.393Z,4.2
2018-07-16T01:52:01.397Z,4.1
2018-07-16T01:57:01.397Z,4.2
2018-07-16T02:02:02.430Z,4.2
2018-07-16T02:08:01.396Z,4.6
2018-07-16T02:13:01.382Z,4.6
2018-07-16T02:18:01.383Z,4.6
2018-07-16T02:23:01.378Z,4.6
2018-07-16T02:28:01.717Z,4.6
2018-07-16T02:33:01.392Z,4.6
2018-07-16T02:38:01.398Z,4.5
2018-07-16T02:44:06.561Z,4.7
2018-07-16T02:49:06.425Z,4.5
2018-07-16T02:54:06.363Z,4.6
2018-07-16T02:59:06.454Z,4.5
2018-07-16T03:04:01.450Z,4.6
2018-07-16T03:09:01.456Z,4.6
2018-07-16T03:14:01.359Z,5.0
2018-07-16T03:19:01.392Z,5.3
2018-07-16T03:24:01.394Z,5.4
2018-07-16T03:29:01.386Z,5.5
2018-07-16T03:34:01.386Z,5.7
2018-07-16T03:39:01.388Z,5.9
2018-07-16T03:44:01.357Z,6.1
2018-07-16T03:49:01.454Z,6.4
2018-07-16T03:54:01.368Z,6.4
2018-07-16T03:59:01.401Z,6.2
2018-07-16T04:04:01.361Z,5.9
2018-07-16T04:09:01.959Z,5.6
2018-07-16T04:14:01.380Z,5.3
2018-07-16T04:19:01.392Z,5.3
2018-07-16T04:24:01.380Z,5.3
2018-07-16T04:29:01.466Z,5.2
2018-07-16T04:34:01.390Z,5.3
2018-07-16T04:39:01.422Z,5.5
2018-07-16T04:44:01.394Z,5.9
2018-07-16T04:49:01.392Z,6.3
2018-07-16T04:54:01.347Z,6.7
2018-07-16T04:59:01.479Z,7.2
2018-07-16T05:04:01.328Z,8.1
2018-07-16T05:09:01.512Z,8.3
2018-07-16T05:14:11.361Z,8.3
2018-07-16T05:19:01.455Z,8.8
2018-07-16T05:24:01.558Z,8.9
2018-07-16T05:29:01.467Z,8.3
2018-07-16T05:34:01.383Z,8.3
2018-07-16T05:39:01.388Z,8.4
2018-07-16T05:44:01.386Z,8.3
2018-07-16T05:54:01.449Z,8.5
2018-07-16T05:59:01.510Z,8.8
2018-07-16T06:09:01.452Z,9.2
2018-07-16T06:14:01.371Z,9.0
2018-07-16T06:19:01.461Z,8.9
2018-07-16T06:24:01.795Z,8.2
2018-07-16T06:34:01.455Z,7.4
2018-07-16T06:39:01.515Z,7.2
2018-07-16T06:44:01.454Z,6.7
2018-07-16T06:49:01.481Z,6.8
2018-07-16T06:54:01.786Z,7.0
2018-07-16T06:59:01.453Z,7.2
2018-07-16T07:04:01.366Z,7.4
2018-07-16T07:09:02.479Z,7.4
2018-07-16T07:14:01.387Z,8.0
2018-07-16T07:19:01.387Z,8.0
2018-07-16T07:24:01.380Z,7.7
2018-07-16T07:29:01.376Z,7.7
2018-07-16T07:34:01.581Z,7.7
2018-07-16T07:39:01.449Z,7.1
2018-07-16T07:44:01.334Z,7.0
2018-07-16T07:49:01.395Z,7.1
2018-07-16T07:54:01.343Z,7.2
2018-07-16T07:59:01.444Z,7.4
2018-07-16T08:04:01.384Z,7.4
2018-07-16T08:09:01.500Z,7.2
2018-07-16T08:14:06.429Z,7.4
2018-07-16T08:19:06.594Z,7.3
2018-07-16T08:24:06.468Z,7.1
2018-07-16T08:29:07.424Z,7.1
2018-07-16T08:35:06.344Z,7.4
2018-07-16T08:40:01.451Z,7.2
2018-07-16T08:45:06.457Z,7.1
2018-07-16T08:55:01.444Z,7.1
2018-07-16T09:00:01.397Z,7.2
2018-07-16T09:05:01.387Z,7.4
2018-07-16T09:10:01.632Z,7.6
2018-07-16T09:15:01.312Z,7.4
2018-07-16T09:20:01.575Z,7.6
2018-07-16T09:25:01.770Z,7.4
2018-07-16T09:30:01.445Z,7.3
2018-07-16T09:35:01.379Z,7.6
2018-07-16T09:40:01.514Z,7.9
2018-07-16T09:45:01.397Z,7.9
2018-07-16T09:50:01.454Z,7.7
2018-07-16T09:56:01.497Z,7.3
2018-07-16T10:01:01.441Z,7.0
2018-07-16T10:06:01.378Z,6.6
2018-07-16T10:11:01.444Z,6.6
2018-07-16T10:16:01.412Z,6.6
2018-07-16T10:21:01.520Z,7.1
2018-07-16T10:26:01.420Z,7.0
2018-07-16T10:31:01.445Z,7.0
2018-07-16T10:36:06.385Z,6.7
2018-07-16T10:41:01.466Z,6.9
2018-07-16T10:46:01.380Z,6.6
2018-07-16T10:51:01.496Z,6.8
2018-07-16T10:56:01.342Z,6.8
2018-07-16T11:01:01.513Z,6.8
2018-07-16T11:06:01.327Z,6.5
2018-07-16T11:11:01.534Z,6.6
2018-07-16T11:21:06.382Z,6.6
2018-07-16T11:26:01.421Z,6.8
2018-07-16T11:31:01.473Z,6.8
2018-07-16T11:36:06.393Z,6.5
2018-07-16T11:41:01.433Z,6.3
2018-07-16T11:46:01.643Z,6.0
2018-07-16T11:51:01.513Z,6.0
2018-07-16T11:56:01.397Z,6.4
2018-07-16T12:01:06.574Z,7.0
2018-07-16T12:11:06.363Z,7.4
2018-07-16T12:16:01.367Z,7.6
2018-07-16T12:21:01.454Z,7.5
2018-07-16T12:26:01.697Z,7.2
2018-07-16T12:36:01.446Z,7.9
2018-07-16T12:41:01.505Z,8.5
2018-07-16T12:46:01.392Z,8.6
2018-07-16T12:51:01.447Z,8.7
2018-07-16T12:56:01.414Z,8.5
2018-07-16T13:01:01.452Z,8.1
2018-07-16T13:06:01.503Z,7.4
2018-07-16T13:11:01.388Z,7.0
2018-07-16T13:16:01.736Z,6.6
2018-07-16T13:21:01.517Z,6.4
2018-07-16T13:26:06.381Z,6.3
2018-07-16T13:31:01.381Z,6.1
2018-07-16T13:36:01.382Z,6.0
2018-07-16T13:41:01.393Z,5.9
2018-07-16T13:46:01.388Z,5.7
2018-07-16T13:51:01.477Z,5.8
2018-07-16T13:56:01.457Z,5.8
2018-07-16T14:01:01.593Z,5.7
2018-07-16T14:06:01.353Z,5.6
2018-07-16T14:11:01.393Z,5.6
2018-07-16T14:16:01.385Z,5.3
2018-07-16T14:21:01.457Z,5.3
2018-07-16T14:26:01.331Z,5.3
2018-07-16T14:31:01.392Z,5.6
2018-07-16T14:36:06.398Z,5.8
2018-07-16T14:41:01.391Z,5.6
2018-07-16T14:46:01.395Z,5.3
2018-07-16T14:51:01.426Z,5.4
2018-07-16T14:56:01.382Z,5.3
2018-07-16T15:01:01.444Z,5.3
2018-07-16T15:11:06.519Z,6.0
2018-07-16T15:16:01.423Z,6.0
2018-07-16T15:21:02.998Z,6.0
2018-07-16T15:26:01.360Z,5.9
2018-07-16T15:32:01.493Z,6.0
2018-07-16T15:37:01.383Z,5.8
2018-07-16T15:42:01.379Z,5.6
2018-07-16T15:52:01.510Z,5.9
2018-07-16T16:07:01.523Z,6.1
2018-07-16T16:12:01.399Z,5.9
2018-07-16T16:27:01.444Z,5.4
2018-07-16T16:37:01.512Z,5.6
2018-07-16T16:42:01.475Z,5.4
2018-07-16T16:47:01.364Z,5.1
2018-07-16T16:52:01.521Z,5.0
2018-07-16T16:57:01.393Z,5.0
2018-07-16T17:03:01.510Z,4.6
2018-07-16T17:08:01.407Z,4.6
2018-07-16T17:13:01.513Z,4.6
2018-07-16T17:18:01.579Z,4.3
2018-07-16T17:23:01.450Z,4.3
2018-07-16T17:28:01.384Z,4.3
2018-07-16T17:33:01.521Z,4.1
2018-07-16T17:38:01.461Z,4.3
2018-07-16T17:43:01.613Z,4.6
2018-07-16T17:48:01.358Z,4.4
2018-07-16T17:53:01.457Z,4.2
2018-07-16T18:08:01.486Z,4.1
2018-07-16T18:13:01.514Z,3.9
2018-07-16T18:30:00.929Z,4.0
2018-07-16T18:35:00.835Z,5.0
2018-07-16T18:40:00.863Z,5.1
2018-07-16T18:45:00.835Z,4.8
2018-07-16T18:50:00.909Z,4.8
2018-07-16T19:00:00.925Z,4.5
2018-07-16T19:15:00.845Z,4.6
2018-07-16T19:20:00.851Z,4.6
2018-07-16T19:25:00.849Z,4.6
2018-07-16T19:30:00.981Z,4.4
2018-07-16T19:35:01.014Z,4.8
2018-07-16T19:40:00.925Z,5.0
2018-07-16T19:45:01.063Z,5.1
2018-07-16T19:50:00.917Z,5.5
2018-07-16T20:00:00.887Z,5.6
2018-07-16T20:05:00.866Z,5.6
2018-07-16T20:10:01.220Z,5.6
2018-07-16T20:15:01.130Z,5.4
2018-07-16T20:20:00.935Z,5.4
2018-07-16T20:25:00.846Z,5.4
2018-07-16T20:30:01.000Z,5.2
2018-07-16T20:35:00.874Z,5.2
2018-07-16T20:40:00.909Z,5.3
2018-07-16T20:45:00.882Z,5.5
2018-07-16T20:50:00.941Z,5.6
2018-07-16T20:55:00.853Z,5.8
2018-07-16T21:00:01.011Z,5.9
2018-07-16T21:05:00.882Z,5.7
2018-07-16T21:10:00.916Z,5.6
2018-07-16T21:15:00.887Z,5.4
2018-07-16T21:20:00.964Z,5.4
2018-07-16T21:25:00.857Z,5.6
2018-07-16T21:30:01.144Z,5.8
2018-07-16T21:35:00.888Z,5.9
2018-07-16T21:40:01.024Z,6.2
2018-07-16T21:45:00.904Z,6.3
2018-07-16T21:50:00.985Z,6.6
2018-07-16T21:55:00.860Z,6.9
2018-07-16T22:00:00.949Z,7.3
2018-07-16T22:05:00.906Z,7.0
2018-07-16T22:10:01.030Z,6.8
2018-07-16T22:15:00.976Z,6.8
2018-07-16T22:20:00.985Z,7.1
2018-07-16T22:25:01.093Z,6.9
2018-07-16T22:30:00.908Z,7.2
2018-07-16T22:35:00.906Z,7.4
2018-07-16T22:40:00.915Z,7.4
2018-07-16T22:45:00.883Z,7.4
2018-07-16T22:50:00.982Z,7.6
2018-07-16T22:55:00.919Z,7.5
2018-07-16T23:00:00.981Z,7.7
2018-07-16T23:05:00.948Z,8.0
2018-07-16T23:10:00.995Z,7.8
2018-07-16T23:15:00.915Z,8.0
2018-07-16T23:20:00.969Z,8.0
2018-07-16T23:25:00.970Z,8.2
2018-07-16T23:30:00.988Z,7.9
2018-07-16T23:35:00.933Z,8.1
2018-07-16T23:45:00.996Z,8.3
2018-07-16T23:50:00.932Z,8.4
